sensor_id;sensor_type;location;lat;lon;timestamp;P1;durP1;ratioP1;P2;durP2;ratioP2
32333;SDS011;18810;53.040;8.850;2023-04-25T00:01:10;24.77;;;7.65;;
32333;SDS011;18810;53.040;8.850;2023-04-25T00:03:38;25.73;;;8.25;;
32333;SDS011;18810;53.040;8.850;2023-04-25T00:06:05;27.27;;;8.45;;
32333;SDS011;18810;53.040;8.850;2023-04-25T00:08:31;29.48;;;7.97;;
32333;SDS011;18810;53.040;8.850;2023-04-25T00:10:57;20.95;;;7.90;;
32333;SDS011;18810;53.040;8.850;2023-04-25T00:13:23;29.58;;;8.85;;
32333;SDS011;18810;53.040;8.850;2023-04-25T00:15:50;31.35;;;8.35;;
32333;SDS011;18810;53.040;8.850;2023-04-25T00:18:18;30.10;;;7.53;;
32333;SDS011;18810;53.040;8.850;2023-04-25T00:20:44;32.42;;;9.18;;
32333;SDS011;18810;53.040;8.850;2023-04-25T00:23:12;27.65;;;8.27;;
32333;SDS011;18810;53.040;8.850;2023-04-25T00:25:46;36.33;;;8.20;;
32333;SDS011;18810;53.040;8.850;2023-04-25T00:30:40;40.55;;;8.50;;
32333;SDS011;18810;53.040;8.850;2023-04-25T00:33:06;34.63;;;8.85;;
32333;SDS011;18810;53.040;8.850;2023-04-25T00:35:32;35.17;;;8.13;;
32333;SDS011;18810;53.040;8.850;2023-04-25T00:37:58;29.50;;;7.55;;
32333;SDS011;18810;53.040;8.850;2023-04-25T00:40:27;32.78;;;7.97;;
32333;SDS011;18810;53.040;8.850;2023-04-25T00:42:53;31.77;;;8.27;;
32333;SDS011;18810;53.040;8.850;2023-04-25T00:45:19;29.23;;;8.38;;
32333;SDS011;18810;53.040;8.850;2023-04-25T00:47:45;35.40;;;7.55;;
32333;SDS011;18810;53.040;8.850;2023-04-25T00:50:12;37.78;;;9.38;;
32333;SDS011;18810;53.040;8.850;2023-04-25T00:52:38;24.90;;;8.88;;
32333;SDS011;18810;53.040;8.850;2023-04-25T00:55:06;26.83;;;8.00;;
32333;SDS011;18810;53.040;8.850;2023-04-25T00:57:33;33.90;;;7.95;;
32333;SDS011;18810;53.040;8.850;2023-04-25T00:59:59;30.67;;;8.70;;
32333;SDS011;18810;53.040;8.850;2023-04-25T01:02:25;34.78;;;8.57;;
32333;SDS011;18810;53.040;8.850;2023-04-25T01:04:52;37.75;;;8.15;;
32333;SDS011;18810;53.040;8.850;2023-04-25T01:07:18;31.95;;;7.68;;
32333;SDS011;18810;53.040;8.850;2023-04-25T01:09:44;46.30;;;8.98;;
32333;SDS011;18810;53.040;8.850;2023-04-25T01:12:11;36.13;;;7.57;;
32333;SDS011;18810;53.040;8.850;2023-04-25T01:14:37;37.20;;;8.98;;
32333;SDS011;18810;53.040;8.850;2023-04-25T01:17:03;35.40;;;7.70;;
32333;SDS011;18810;53.040;8.850;2023-04-25T01:19:28;32.97;;;8.98;;
32333;SDS011;18810;53.040;8.850;2023-04-25T01:21:54;24.45;;;7.63;;
32333;SDS011;18810;53.040;8.850;2023-04-25T01:24:20;35.70;;;9.23;;
32333;SDS011;18810;53.040;8.850;2023-04-25T01:26:46;32.15;;;8.13;;
32333;SDS011;18810;53.040;8.850;2023-04-25T01:29:18;34.25;;;8.80;;
32333;SDS011;18810;53.040;8.850;2023-04-25T01:31:45;37.58;;;8.27;;
32333;SDS011;18810;53.040;8.850;2023-04-25T01:34:11;32.53;;;9.02;;
32333;SDS011;18810;53.040;8.850;2023-04-25T01:36:38;32.10;;;7.50;;
32333;SDS011;18810;53.040;8.850;2023-04-25T01:39:04;30.23;;;8.80;;
32333;SDS011;18810;53.040;8.850;2023-04-25T01:41:30;38.63;;;9.45;;
32333;SDS011;18810;53.040;8.850;2023-04-25T01:43:56;35.83;;;8.52;;
32333;SDS011;18810;53.040;8.850;2023-04-25T01:46:21;33.80;;;8.68;;
32333;SDS011;18810;53.040;8.850;2023-04-25T01:48:47;28.92;;;7.43;;
32333;SDS011;18810;53.040;8.850;2023-04-25T01:51:13;36.03;;;8.27;;
32333;SDS011;18810;53.040;8.850;2023-04-25T01:53:40;34.00;;;9.20;;
32333;SDS011;18810;53.040;8.850;2023-04-25T01:56:05;32.83;;;8.57;;
32333;SDS011;18810;53.040;8.850;2023-04-25T01:58:31;27.00;;;7.63;;
32333;SDS011;18810;53.040;8.850;2023-04-25T02:00:57;33.03;;;7.40;;
32333;SDS011;18810;53.040;8.850;2023-04-25T02:03:23;39.28;;;8.80;;
32333;SDS011;18810;53.040;8.850;2023-04-25T02:05:48;26.25;;;7.82;;
32333;SDS011;18810;53.040;8.850;2023-04-25T02:08:17;32.85;;;7.72;;
32333;SDS011;18810;53.040;8.850;2023-04-25T02:10:43;27.55;;;8.20;;
32333;SDS011;18810;53.040;8.850;2023-04-25T02:13:09;27.98;;;7.90;;
32333;SDS011;18810;53.040;8.850;2023-04-25T02:15:35;33.30;;;8.05;;
32333;SDS011;18810;53.040;8.850;2023-04-25T02:18:00;33.88;;;7.82;;
32333;SDS011;18810;53.040;8.850;2023-04-25T02:20:29;32.65;;;7.43;;
32333;SDS011;18810;53.040;8.850;2023-04-25T02:22:55;34.50;;;9.00;;
32333;SDS011;18810;53.040;8.850;2023-04-25T02:25:22;35.15;;;7.80;;
32333;SDS011;18810;53.040;8.850;2023-04-25T02:27:48;36.08;;;8.27;;
32333;SDS011;18810;53.040;8.850;2023-04-25T02:30:14;29.05;;;8.25;;
32333;SDS011;18810;53.040;8.850;2023-04-25T02:32:40;27.67;;;8.60;;
32333;SDS011;18810;53.040;8.850;2023-04-25T02:35:06;32.00;;;7.72;;
32333;SDS011;18810;53.040;8.850;2023-04-25T02:37:33;25.38;;;8.45;;
32333;SDS011;18810;53.040;8.850;2023-04-25T02:39:59;25.83;;;7.55;;
32333;SDS011;18810;53.040;8.850;2023-04-25T02:42:26;26.20;;;8.65;;
32333;SDS011;18810;53.040;8.850;2023-04-25T02:44:52;28.02;;;7.05;;
32333;SDS011;18810;53.040;8.850;2023-04-25T02:47:18;26.30;;;7.68;;
32333;SDS011;18810;53.040;8.850;2023-04-25T02:49:44;26.63;;;7.88;;
32333;SDS011;18810;53.040;8.850;2023-04-25T02:52:10;36.88;;;7.85;;
32333;SDS011;18810;53.040;8.850;2023-04-25T02:54:37;25.38;;;6.65;;
32333;SDS011;18810;53.040;8.850;2023-04-25T02:57:03;30.05;;;7.93;;
32333;SDS011;18810;53.040;8.850;2023-04-25T02:59:29;31.80;;;8.70;;
32333;SDS011;18810;53.040;8.850;2023-04-25T03:01:54;27.15;;;7.07;;
32333;SDS011;18810;53.040;8.850;2023-04-25T03:04:20;30.45;;;8.82;;
32333;SDS011;18810;53.040;8.850;2023-04-25T03:06:48;28.38;;;7.70;;
32333;SDS011;18810;53.040;8.850;2023-04-25T03:09:14;26.15;;;6.82;;
32333;SDS011;18810;53.040;8.850;2023-04-25T03:11:40;28.95;;;7.35;;
32333;SDS011;18810;53.040;8.850;2023-04-25T03:14:06;23.45;;;6.68;;
32333;SDS011;18810;53.040;8.850;2023-04-25T03:16:32;23.77;;;7.18;;
32333;SDS011;18810;53.040;8.850;2023-04-25T03:18:58;31.08;;;6.72;;
32333;SDS011;18810;53.040;8.850;2023-04-25T03:21:27;26.45;;;7.18;;
32333;SDS011;18810;53.040;8.850;2023-04-25T03:23:53;24.15;;;6.25;;
32333;SDS011;18810;53.040;8.850;2023-04-25T03:26:19;27.67;;;7.05;;
32333;SDS011;18810;53.040;8.850;2023-04-25T03:28:45;23.30;;;6.13;;
32333;SDS011;18810;53.040;8.850;2023-04-25T03:31:11;21.58;;;6.15;;
32333;SDS011;18810;53.040;8.850;2023-04-25T03:33:36;30.65;;;6.28;;
32333;SDS011;18810;53.040;8.850;2023-04-25T03:36:02;27.77;;;5.90;;
32333;SDS011;18810;53.040;8.850;2023-04-25T03:38:28;25.13;;;5.55;;
32333;SDS011;18810;53.040;8.850;2023-04-25T03:40:54;21.92;;;6.50;;
32333;SDS011;18810;53.040;8.850;2023-04-25T03:43:21;19.13;;;6.47;;
32333;SDS011;18810;53.040;8.850;2023-04-25T03:45:46;27.35;;;6.13;;
32333;SDS011;18810;53.040;8.850;2023-04-25T03:48:12;21.88;;;6.22;;
32333;SDS011;18810;53.040;8.850;2023-04-25T03:50:38;30.00;;;6.13;;
32333;SDS011;18810;53.040;8.850;2023-04-25T03:53:04;29.15;;;6.40;;
32333;SDS011;18810;53.040;8.850;2023-04-25T03:55:29;22.30;;;5.65;;
32333;SDS011;18810;53.040;8.850;2023-04-25T03:57:55;26.08;;;5.55;;
32333;SDS011;18810;53.040;8.850;2023-04-25T04:00:23;24.27;;;6.45;;
32333;SDS011;18810;53.040;8.850;2023-04-25T04:02:49;21.52;;;5.72;;
32333;SDS011;18810;53.040;8.850;2023-04-25T04:05:15;19.58;;;5.05;;
32333;SDS011;18810;53.040;8.850;2023-04-25T04:07:40;27.90;;;5.95;;
32333;SDS011;18810;53.040;8.850;2023-04-25T04:10:07;24.40;;;6.95;;
32333;SDS011;18810;53.040;8.850;2023-04-25T04:12:37;24.45;;;6.57;;
32333;SDS011;18810;53.040;8.850;2023-04-25T04:15:06;18.17;;;5.90;;
32333;SDS011;18810;53.040;8.850;2023-04-25T04:17:32;27.98;;;5.93;;
32333;SDS011;18810;53.040;8.850;2023-04-25T04:19:58;21.35;;;6.47;;
32333;SDS011;18810;53.040;8.850;2023-04-25T04:22:24;19.73;;;6.65;;
32333;SDS011;18810;53.040;8.850;2023-04-25T04:24:50;27.23;;;6.88;;
32333;SDS011;18810;53.040;8.850;2023-04-25T04:27:19;21.88;;;6.15;;
32333;SDS011;18810;53.040;8.850;2023-04-25T04:29:46;19.08;;;5.88;;
32333;SDS011;18810;53.040;8.850;2023-04-25T04:32:12;15.57;;;4.97;;
32333;SDS011;18810;53.040;8.850;2023-04-25T04:34:38;33.63;;;7.13;;
32333;SDS011;18810;53.040;8.850;2023-04-25T04:37:04;21.88;;;5.63;;
32333;SDS011;18810;53.040;8.850;2023-04-25T04:39:32;23.38;;;5.70;;
32333;SDS011;18810;53.040;8.850;2023-04-25T04:41:58;24.25;;;5.95;;
32333;SDS011;18810;53.040;8.850;2023-04-25T04:44:24;22.75;;;5.22;;
32333;SDS011;18810;53.040;8.850;2023-04-25T04:46:50;22.58;;;5.55;;
32333;SDS011;18810;53.040;8.850;2023-04-25T04:49:16;24.27;;;5.88;;
32333;SDS011;18810;53.040;8.850;2023-04-25T04:51:42;28.27;;;5.82;;
32333;SDS011;18810;53.040;8.850;2023-04-25T04:54:09;17.85;;;6.95;;
32333;SDS011;18810;53.040;8.850;2023-04-25T04:56:35;22.40;;;5.78;;
32333;SDS011;18810;53.040;8.850;2023-04-25T04:59:01;19.52;;;5.60;;
32333;SDS011;18810;53.040;8.850;2023-04-25T05:01:27;22.00;;;6.05;;
32333;SDS011;18810;53.040;8.850;2023-04-25T05:03:55;22.58;;;4.95;;
32333;SDS011;18810;53.040;8.850;2023-04-25T05:06:25;21.63;;;5.22;;
32333;SDS011;18810;53.040;8.850;2023-04-25T05:08:51;21.90;;;6.28;;
32333;SDS011;18810;53.040;8.850;2023-04-25T05:11:18;17.65;;;5.50;;
32333;SDS011;18810;53.040;8.850;2023-04-25T05:13:44;25.17;;;5.88;;
32333;SDS011;18810;53.040;8.850;2023-04-25T05:16:10;26.42;;;5.30;;
32333;SDS011;18810;53.040;8.850;2023-04-25T05:18:36;21.77;;;4.88;;
32333;SDS011;18810;53.040;8.850;2023-04-25T05:21:03;19.67;;;5.07;;
32333;SDS011;18810;53.040;8.850;2023-04-25T05:23:28;26.30;;;5.43;;
32333;SDS011;18810;53.040;8.850;2023-04-25T05:25:55;21.17;;;5.00;;
32333;SDS011;18810;53.040;8.850;2023-04-25T05:28:21;17.23;;;4.45;;
32333;SDS011;18810;53.040;8.850;2023-04-25T05:30:46;19.92;;;5.93;;
32333;SDS011;18810;53.040;8.850;2023-04-25T05:33:12;17.75;;;5.50;;
32333;SDS011;18810;53.040;8.850;2023-04-25T05:35:38;21.33;;;5.25;;
32333;SDS011;18810;53.040;8.850;2023-04-25T05:38:04;20.95;;;4.95;;
32333;SDS011;18810;53.040;8.850;2023-04-25T05:40:30;18.58;;;5.05;;
32333;SDS011;18810;53.040;8.850;2023-04-25T05:42:56;17.88;;;4.05;;
32333;SDS011;18810;53.040;8.850;2023-04-25T05:45:21;18.77;;;4.55;;
32333;SDS011;18810;53.040;8.850;2023-04-25T05:47:47;16.50;;;4.95;;
32333;SDS011;18810;53.040;8.850;2023-04-25T05:50:13;17.33;;;4.60;;
32333;SDS011;18810;53.040;8.850;2023-04-25T05:52:38;15.75;;;4.60;;
32333;SDS011;18810;53.040;8.850;2023-04-25T05:55:04;17.17;;;4.47;;
32333;SDS011;18810;53.040;8.850;2023-04-25T05:57:30;19.48;;;4.75;;
32333;SDS011;18810;53.040;8.850;2023-04-25T05:59:56;19.60;;;4.40;;
32333;SDS011;18810;53.040;8.850;2023-04-25T06:02:22;12.45;;;4.03;;
32333;SDS011;18810;53.040;8.850;2023-04-25T06:04:51;13.23;;;3.80;;
32333;SDS011;18810;53.040;8.850;2023-04-25T06:07:17;13.73;;;3.88;;
32333;SDS011;18810;53.040;8.850;2023-04-25T06:09:44;18.65;;;3.95;;
32333;SDS011;18810;53.040;8.850;2023-04-25T06:12:10;10.30;;;4.00;;
32333;SDS011;18810;53.040;8.850;2023-04-25T06:14:36;18.42;;;3.80;;
32333;SDS011;18810;53.040;8.850;2023-04-25T06:17:02;14.73;;;4.53;;
32333;SDS011;18810;53.040;8.850;2023-04-25T06:19:32;18.60;;;4.15;;
32333;SDS011;18810;53.040;8.850;2023-04-25T06:21:58;13.02;;;3.70;;
32333;SDS011;18810;53.040;8.850;2023-04-25T06:24:23;14.82;;;3.58;;
32333;SDS011;18810;53.040;8.850;2023-04-25T06:26:49;13.55;;;3.65;;
32333;SDS011;18810;53.040;8.850;2023-04-25T06:29:15;12.80;;;3.28;;
32333;SDS011;18810;53.040;8.850;2023-04-25T06:31:40;15.15;;;3.78;;
32333;SDS011;18810;53.040;8.850;2023-04-25T06:34:06;18.15;;;3.95;;
32333;SDS011;18810;53.040;8.850;2023-04-25T06:36:32;12.27;;;3.85;;
32333;SDS011;18810;53.040;8.850;2023-04-25T06:38:57;14.85;;;4.55;;
32333;SDS011;18810;53.040;8.850;2023-04-25T06:41:23;13.02;;;3.17;;
32333;SDS011;18810;53.040;8.850;2023-04-25T06:43:49;16.85;;;3.55;;
32333;SDS011;18810;53.040;8.850;2023-04-25T06:46:15;10.52;;;3.13;;
32333;SDS011;18810;53.040;8.850;2023-04-25T06:48:46;11.75;;;3.47;;
32333;SDS011;18810;53.040;8.850;2023-04-25T06:51:12;12.88;;;2.75;;
32333;SDS011;18810;53.040;8.850;2023-04-25T06:53:38;13.27;;;2.83;;
32333;SDS011;18810;53.040;8.850;2023-04-25T06:56:05;14.77;;;3.28;;
32333;SDS011;18810;53.040;8.850;2023-04-25T06:58:31;20.00;;;3.70;;
32333;SDS011;18810;53.040;8.850;2023-04-25T07:00:56;13.73;;;3.00;;
32333;SDS011;18810;53.040;8.850;2023-04-25T07:03:22;8.73;;;3.08;;
32333;SDS011;18810;53.040;8.850;2023-04-25T07:05:49;9.93;;;2.83;;
32333;SDS011;18810;53.040;8.850;2023-04-25T07:08:15;12.70;;;3.40;;
32333;SDS011;18810;53.040;8.850;2023-04-25T07:10:41;14.05;;;3.75;;
32333;SDS011;18810;53.040;8.850;2023-04-25T07:13:06;13.60;;;3.65;;
32333;SDS011;18810;53.040;8.850;2023-04-25T07:15:32;11.35;;;2.88;;
32333;SDS011;18810;53.040;8.850;2023-04-25T07:17:58;15.68;;;3.15;;
32333;SDS011;18810;53.040;8.850;2023-04-25T07:20:24;13.93;;;3.03;;
32333;SDS011;18810;53.040;8.850;2023-04-25T07:22:50;9.10;;;2.88;;
32333;SDS011;18810;53.040;8.850;2023-04-25T07:25:16;10.93;;;2.67;;
32333;SDS011;18810;53.040;8.850;2023-04-25T07:27:42;16.95;;;2.80;;
32333;SDS011;18810;53.040;8.850;2023-04-25T07:30:08;13.10;;;2.47;;
32333;SDS011;18810;53.040;8.850;2023-04-25T07:32:34;12.85;;;3.53;;
32333;SDS011;18810;53.040;8.850;2023-04-25T07:34:59;11.77;;;2.55;;
32333;SDS011;18810;53.040;8.850;2023-04-25T07:37:26;17.85;;;3.47;;
32333;SDS011;18810;53.040;8.850;2023-04-25T07:39:52;9.73;;;2.88;;
32333;SDS011;18810;53.040;8.850;2023-04-25T07:42:17;11.68;;;2.85;;
32333;SDS011;18810;53.040;8.850;2023-04-25T07:44:43;6.97;;;2.53;;
32333;SDS011;18810;53.040;8.850;2023-04-25T07:47:09;9.55;;;2.78;;
32333;SDS011;18810;53.040;8.850;2023-04-25T07:49:35;12.77;;;3.13;;
32333;SDS011;18810;53.040;8.850;2023-04-25T07:52:02;12.82;;;3.28;;
32333;SDS011;18810;53.040;8.850;2023-04-25T07:54:28;11.98;;;2.58;;
32333;SDS011;18810;53.040;8.850;2023-04-25T07:56:54;16.55;;;3.85;;
32333;SDS011;18810;53.040;8.850;2023-04-25T07:59:21;11.57;;;2.72;;
32333;SDS011;18810;53.040;8.850;2023-04-25T08:01:47;9.85;;;2.30;;
32333;SDS011;18810;53.040;8.850;2023-04-25T08:04:13;10.52;;;2.67;;
32333;SDS011;18810;53.040;8.850;2023-04-25T08:06:38;11.45;;;2.80;;
32333;SDS011;18810;53.040;8.850;2023-04-25T08:09:05;8.52;;;2.90;;
32333;SDS011;18810;53.040;8.850;2023-04-25T08:11:31;10.57;;;2.58;;
32333;SDS011;18810;53.040;8.850;2023-04-25T08:13:57;11.80;;;2.70;;
32333;SDS011;18810;53.040;8.850;2023-04-25T08:16:22;15.15;;;2.88;;
32333;SDS011;18810;53.040;8.850;2023-04-25T08:18:49;10.55;;;2.78;;
32333;SDS011;18810;53.040;8.850;2023-04-25T08:21:15;9.20;;;3.25;;
32333;SDS011;18810;53.040;8.850;2023-04-25T08:23:41;11.07;;;2.45;;
32333;SDS011;18810;53.040;8.850;2023-04-25T08:26:07;9.32;;;2.58;;
32333;SDS011;18810;53.040;8.850;2023-04-25T08:28:32;11.85;;;2.70;;
32333;SDS011;18810;53.040;8.850;2023-04-25T08:30:58;8.23;;;2.55;;
32333;SDS011;18810;53.040;8.850;2023-04-25T08:33:24;10.88;;;3.00;;
32333;SDS011;18810;53.040;8.850;2023-04-25T08:35:50;7.30;;;2.50;;
32333;SDS011;18810;53.040;8.850;2023-04-25T08:38:17;10.63;;;2.88;;
32333;SDS011;18810;53.040;8.850;2023-04-25T08:40:43;10.95;;;2.22;;
32333;SDS011;18810;53.040;8.850;2023-04-25T08:43:09;9.70;;;2.67;;
32333;SDS011;18810;53.040;8.850;2023-04-25T08:45:39;7.13;;;1.77;;
32333;SDS011;18810;53.040;8.850;2023-04-25T08:48:10;8.60;;;1.90;;
32333;SDS011;18810;53.040;8.850;2023-04-25T08:50:39;9.65;;;2.15;;
32333;SDS011;18810;53.040;8.850;2023-04-25T08:53:21;4.63;;;1.60;;
32333;SDS011;18810;53.040;8.850;2023-04-25T08:55:55;11.18;;;2.00;;
32333;SDS011;18810;53.040;8.850;2023-04-25T08:58:22;5.95;;;1.77;;
32333;SDS011;18810;53.040;8.850;2023-04-25T09:00:49;8.50;;;1.85;;
32333;SDS011;18810;53.040;8.850;2023-04-25T09:03:16;2.78;;;1.40;;
32333;SDS011;18810;53.040;8.850;2023-04-25T09:05:43;5.32;;;1.60;;
32333;SDS011;18810;53.040;8.850;2023-04-25T09:08:09;7.22;;;1.83;;
32333;SDS011;18810;53.040;8.850;2023-04-25T09:10:35;8.40;;;2.40;;
32333;SDS011;18810;53.040;8.850;2023-04-25T09:13:02;5.15;;;2.20;;
32333;SDS011;18810;53.040;8.850;2023-04-25T09:15:31;7.03;;;1.90;;
32333;SDS011;18810;53.040;8.850;2023-04-25T09:17:58;7.28;;;2.67;;
32333;SDS011;18810;53.040;8.850;2023-04-25T09:20:24;8.93;;;1.98;;
32333;SDS011;18810;53.040;8.850;2023-04-25T09:23:03;5.78;;;1.63;;
32333;SDS011;18810;53.040;8.850;2023-04-25T09:25:36;8.20;;;1.90;;
32333;SDS011;18810;53.040;8.850;2023-04-25T09:28:04;6.47;;;1.75;;
32333;SDS011;18810;53.040;8.850;2023-04-25T09:30:32;6.45;;;1.77;;
32333;SDS011;18810;53.040;8.850;2023-04-25T09:33:06;8.48;;;2.05;;
32333;SDS011;18810;53.040;8.850;2023-04-25T09:35:43;5.53;;;2.22;;
32333;SDS011;18810;53.040;8.850;2023-04-25T09:38:18;9.20;;;2.13;;
32333;SDS011;18810;53.040;8.850;2023-04-25T09:40:44;9.70;;;2.00;;
32333;SDS011;18810;53.040;8.850;2023-04-25T09:45:46;4.13;;;1.67;;
32333;SDS011;18810;53.040;8.850;2023-04-25T09:48:16;6.65;;;2.33;;
32333;SDS011;18810;53.040;8.850;2023-04-25T09:50:44;6.72;;;2.47;;
32333;SDS011;18810;53.040;8.850;2023-04-25T09:53:10;7.03;;;1.83;;
32333;SDS011;18810;53.040;8.850;2023-04-25T09:55:35;10.70;;;2.15;;
32333;SDS011;18810;53.040;8.850;2023-04-25T09:58:04;8.65;;;2.10;;
32333;SDS011;18810;53.040;8.850;2023-04-25T10:00:32;7.55;;;1.88;;
32333;SDS011;18810;53.040;8.850;2023-04-25T10:02:59;6.70;;;1.83;;
32333;SDS011;18810;53.040;8.850;2023-04-25T10:05:30;4.82;;;1.70;;
32333;SDS011;18810;53.040;8.850;2023-04-25T10:07:59;6.10;;;1.77;;
32333;SDS011;18810;53.040;8.850;2023-04-25T10:10:28;7.03;;;2.10;;
32333;SDS011;18810;53.040;8.850;2023-04-25T10:12:57;5.72;;;1.80;;
32333;SDS011;18810;53.040;8.850;2023-04-25T10:15:24;7.55;;;1.90;;
32333;SDS011;18810;53.040;8.850;2023-04-25T10:17:50;6.53;;;1.45;;
32333;SDS011;18810;53.040;8.850;2023-04-25T10:20:16;6.75;;;1.90;;
32333;SDS011;18810;53.040;8.850;2023-04-25T10:22:42;4.25;;;1.40;;
32333;SDS011;18810;53.040;8.850;2023-04-25T10:25:10;9.30;;;1.67;;
32333;SDS011;18810;53.040;8.850;2023-04-25T10:27:36;7.22;;;1.85;;
32333;SDS011;18810;53.040;8.850;2023-04-25T10:32:33;5.07;;;1.63;;
32333;SDS011;18810;53.040;8.850;2023-04-25T10:35:16;5.07;;;1.60;;
32333;SDS011;18810;53.040;8.850;2023-04-25T10:40:41;6.93;;;1.77;;
32333;SDS011;18810;53.040;8.850;2023-04-25T10:45:56;6.93;;;2.08;;
32333;SDS011;18810;53.040;8.850;2023-04-25T10:48:28;5.75;;;2.22;;
32333;SDS011;18810;53.040;8.850;2023-04-25T10:51:11;4.82;;;1.65;;
32333;SDS011;18810;53.040;8.850;2023-04-25T10:53:40;3.72;;;1.23;;
32333;SDS011;18810;53.040;8.850;2023-04-25T10:56:48;6.60;;;1.67;;
32333;SDS011;18810;53.040;8.850;2023-04-25T10:59:18;3.90;;;1.45;;
32333;SDS011;18810;53.040;8.850;2023-04-25T11:01:45;5.82;;;1.80;;
32333;SDS011;18810;53.040;8.850;2023-04-25T11:04:22;4.72;;;1.42;;
32333;SDS011;18810;53.040;8.850;2023-04-25T11:09:25;7.93;;;1.67;;
32333;SDS011;18810;53.040;8.850;2023-04-25T11:11:55;7.28;;;1.75;;
32333;SDS011;18810;53.040;8.850;2023-04-25T11:14:21;6.45;;;1.80;;
32333;SDS011;18810;53.040;8.850;2023-04-25T11:16:47;7.13;;;2.10;;
32333;SDS011;18810;53.040;8.850;2023-04-25T11:19:21;7.47;;;1.77;;
32333;SDS011;18810;53.040;8.850;2023-04-25T11:21:48;4.25;;;1.65;;
32333;SDS011;18810;53.040;8.850;2023-04-25T11:24:13;4.85;;;2.05;;
32333;SDS011;18810;53.040;8.850;2023-04-25T11:26:44;3.83;;;1.75;;
32333;SDS011;18810;53.040;8.850;2023-04-25T11:29:12;7.00;;;1.83;;
32333;SDS011;18810;53.040;8.850;2023-04-25T11:31:38;4.30;;;1.55;;
32333;SDS011;18810;53.040;8.850;2023-04-25T11:34:04;4.47;;;1.77;;
32333;SDS011;18810;53.040;8.850;2023-04-25T11:36:29;5.25;;;1.77;;
32333;SDS011;18810;53.040;8.850;2023-04-25T11:38:56;5.63;;;1.70;;
32333;SDS011;18810;53.040;8.850;2023-04-25T11:41:22;11.40;;;2.67;;
32333;SDS011;18810;53.040;8.850;2023-04-25T11:43:48;13.80;;;3.35;;
32333;SDS011;18810;53.040;8.850;2023-04-25T11:46:15;6.88;;;2.33;;
32333;SDS011;18810;53.040;8.850;2023-04-25T11:48:41;5.68;;;2.40;;
32333;SDS011;18810;53.040;8.850;2023-04-25T11:51:07;7.18;;;2.42;;
32333;SDS011;18810;53.040;8.850;2023-04-25T11:53:33;4.45;;;2.22;;
32333;SDS011;18810;53.040;8.850;2023-04-25T11:56:00;10.00;;;2.58;;
32333;SDS011;18810;53.040;8.850;2023-04-25T11:58:26;8.20;;;2.33;;
32333;SDS011;18810;53.040;8.850;2023-04-25T12:00:52;9.60;;;3.20;;
32333;SDS011;18810;53.040;8.850;2023-04-25T12:03:18;4.80;;;2.53;;
32333;SDS011;18810;53.040;8.850;2023-04-25T12:05:45;8.75;;;3.00;;
32333;SDS011;18810;53.040;8.850;2023-04-25T12:08:14;6.65;;;2.50;;
32333;SDS011;18810;53.040;8.850;2023-04-25T12:10:42;8.43;;;2.58;;
32333;SDS011;18810;53.040;8.850;2023-04-25T12:13:23;9.18;;;2.28;;
32333;SDS011;18810;53.040;8.850;2023-04-25T12:15:50;5.57;;;2.28;;
32333;SDS011;18810;53.040;8.850;2023-04-25T12:18:35;10.30;;;2.30;;
32333;SDS011;18810;53.040;8.850;2023-04-25T12:21:01;4.30;;;2.08;;
32333;SDS011;18810;53.040;8.850;2023-04-25T12:23:29;4.93;;;1.92;;
32333;SDS011;18810;53.040;8.850;2023-04-25T12:25:55;6.90;;;2.22;;
32333;SDS011;18810;53.040;8.850;2023-04-25T12:28:21;6.03;;;2.42;;
32333;SDS011;18810;53.040;8.850;2023-04-25T12:30:55;8.00;;;2.20;;
32333;SDS011;18810;53.040;8.850;2023-04-25T12:33:29;8.65;;;2.70;;
32333;SDS011;18810;53.040;8.850;2023-04-25T12:35:57;5.70;;;1.58;;
32333;SDS011;18810;53.040;8.850;2023-04-25T12:38:30;4.47;;;1.80;;
32333;SDS011;18810;53.040;8.850;2023-04-25T12:40:57;11.25;;;2.17;;
32333;SDS011;18810;53.040;8.850;2023-04-25T12:43:23;6.88;;;1.45;;
32333;SDS011;18810;53.040;8.850;2023-04-25T12:45:50;6.00;;;2.20;;
32333;SDS011;18810;53.040;8.850;2023-04-25T12:48:17;9.27;;;2.10;;
32333;SDS011;18810;53.040;8.850;2023-04-25T12:50:42;4.25;;;1.58;;
32333;SDS011;18810;53.040;8.850;2023-04-25T12:53:09;3.83;;;1.58;;
32333;SDS011;18810;53.040;8.850;2023-04-25T12:55:35;4.25;;;1.45;;
32333;SDS011;18810;53.040;8.850;2023-04-25T12:58:01;7.32;;;1.90;;
32333;SDS011;18810;53.040;8.850;2023-04-25T13:00:27;3.83;;;1.90;;
32333;SDS011;18810;53.040;8.850;2023-04-25T13:02:53;5.78;;;1.88;;
32333;SDS011;18810;53.040;8.850;2023-04-25T13:05:19;3.13;;;1.50;;
32333;SDS011;18810;53.040;8.850;2023-04-25T13:07:45;5.18;;;1.80;;
32333;SDS011;18810;53.040;8.850;2023-04-25T13:10:10;7.20;;;2.22;;
32333;SDS011;18810;53.040;8.850;2023-04-25T13:12:36;4.78;;;1.52;;
32333;SDS011;18810;53.040;8.850;2023-04-25T13:15:02;6.00;;;1.45;;
32333;SDS011;18810;53.040;8.850;2023-04-25T13:17:28;5.88;;;2.22;;
32333;SDS011;18810;53.040;8.850;2023-04-25T13:19:54;4.63;;;1.75;;
32333;SDS011;18810;53.040;8.850;2023-04-25T13:22:19;4.68;;;1.55;;
32333;SDS011;18810;53.040;8.850;2023-04-25T13:24:45;5.20;;;2.03;;
32333;SDS011;18810;53.040;8.850;2023-04-25T13:27:11;5.43;;;2.53;;
32333;SDS011;18810;53.040;8.850;2023-04-25T13:29:38;8.40;;;2.15;;
32333;SDS011;18810;53.040;8.850;2023-04-25T13:32:05;7.05;;;2.03;;
32333;SDS011;18810;53.040;8.850;2023-04-25T13:34:31;6.70;;;2.10;;
32333;SDS011;18810;53.040;8.850;2023-04-25T13:36:57;8.35;;;2.78;;
32333;SDS011;18810;53.040;8.850;2023-04-25T13:39:23;8.73;;;2.30;;
32333;SDS011;18810;53.040;8.850;2023-04-25T13:41:49;9.00;;;2.45;;
32333;SDS011;18810;53.040;8.850;2023-04-25T13:44:15;5.93;;;2.17;;
32333;SDS011;18810;53.040;8.850;2023-04-25T13:46:41;7.28;;;1.92;;
32333;SDS011;18810;53.040;8.850;2023-04-25T13:49:07;3.13;;;1.42;;
32333;SDS011;18810;53.040;8.850;2023-04-25T13:51:35;5.72;;;1.63;;
32333;SDS011;18810;53.040;8.850;2023-04-25T13:54:01;2.60;;;1.45;;
32333;SDS011;18810;53.040;8.850;2023-04-25T13:56:27;5.75;;;1.50;;
32333;SDS011;18810;53.040;8.850;2023-04-25T13:58:52;9.02;;;1.80;;
32333;SDS011;18810;53.040;8.850;2023-04-25T14:01:18;4.50;;;1.65;;
32333;SDS011;18810;53.040;8.850;2023-04-25T14:03:45;4.65;;;1.30;;
32333;SDS011;18810;53.040;8.850;2023-04-25T14:06:11;3.28;;;1.33;;
32333;SDS011;18810;53.040;8.850;2023-04-25T14:08:38;3.35;;;1.25;;
32333;SDS011;18810;53.040;8.850;2023-04-25T14:11:03;4.05;;;1.45;;
32333;SDS011;18810;53.040;8.850;2023-04-25T14:13:29;5.90;;;2.13;;
32333;SDS011;18810;53.040;8.850;2023-04-25T14:15:55;5.80;;;1.67;;
32333;SDS011;18810;53.040;8.850;2023-04-25T14:18:21;6.53;;;2.03;;
32333;SDS011;18810;53.040;8.850;2023-04-25T14:20:46;7.25;;;2.08;;
32333;SDS011;18810;53.040;8.850;2023-04-25T14:23:12;7.40;;;2.40;;
32333;SDS011;18810;53.040;8.850;2023-04-25T14:25:38;6.45;;;1.83;;
32333;SDS011;18810;53.040;8.850;2023-04-25T14:28:05;6.60;;;2.33;;
32333;SDS011;18810;53.040;8.850;2023-04-25T14:30:31;8.40;;;2.50;;
32333;SDS011;18810;53.040;8.850;2023-04-25T14:32:57;9.55;;;2.38;;
32333;SDS011;18810;53.040;8.850;2023-04-25T14:35:22;7.60;;;1.92;;
32333;SDS011;18810;53.040;8.850;2023-04-25T14:37:48;7.18;;;2.60;;
32333;SDS011;18810;53.040;8.850;2023-04-25T14:40:13;9.90;;;2.42;;
32333;SDS011;18810;53.040;8.850;2023-04-25T14:42:40;10.20;;;3.05;;
32333;SDS011;18810;53.040;8.850;2023-04-25T14:45:06;7.30;;;2.63;;
32333;SDS011;18810;53.040;8.850;2023-04-25T14:47:33;7.82;;;2.85;;
32333;SDS011;18810;53.040;8.850;2023-04-25T14:50:02;14.73;;;3.33;;
32333;SDS011;18810;53.040;8.850;2023-04-25T14:52:27;5.00;;;2.50;;
32333;SDS011;18810;53.040;8.850;2023-04-25T14:54:53;10.80;;;2.90;;